Time,TemperatureF,DewpointF,PressureIn,WindDirection,WindDirectionDegrees,WindSpeedMPH,WindSpeedGustMPH,Humidity,HourlyPrecipIn,Conditions,Clouds,dailyrainin,SolarRadiationWatts/m^2,SoftwareType,DateUTC
2013-12-10 00:02:00,63.0,63.0,-100.00,North,-999,0.0,2.0,100,0.00,,,0.00,0.000000,,2013-12-10 05:02:00,
2013-12-10 00:11:00,63.0,63.0,-100.00,North,-999,0.0,2.0,100,0.00,,,0.00,0.000000,,2013-12-10 05:11:00,
2013-12-10 00:43:00,63.0,63.0,-100.00,North,-999,0.0,2.0,100,0.00,,,0.00,0.000000,,2013-12-10 05:43:00,
2013-12-10 00:53:00,63.0,63.0,-100.00,North,-999,0.0,2.0,100,0.00,,,0.00,0.000000,,2013-12-10 05:53:00,
2013-12-10 01:02:00,63.0,63.0,-100.00,North,-999,0.0,2.0,100,0.00,,,0.00,0.000000,,2013-12-10 06:02:00,
2013-12-10 01:11:00,62.0,62.0,-100.00,SE,138,1.0,2.0,100,0.00,,,0.00,0.000000,,2013-12-10 06:11:00,
2013-12-10 01:42:00,62.0,62.0,-100.00,SE,138,1.0,2.0,100,0.00,,,0.00,0.000000,,2013-12-10 06:42:00,
2013-12-10 01:53:00,62.0,62.0,-100.00,SE,138,1.0,2.0,100,0.00,,,0.00,0.000000,,2013-12-10 06:53:00,
2013-12-10 02:02:00,62.0,62.0,-100.00,SE,138,1.0,2.0,100,0.00,,,0.00,0.000000,,2013-12-10 07:02:00,
2013-12-10 02:11:00,63.0,63.0,-100.00,ENE,71,1.0,2.0,100,0.00,,,0.00,0.000000,,2013-12-10 07:11:00,
2013-12-10 02:42:00,63.0,63.0,-100.00,ENE,71,1.0,2.0,100,0.00,,,0.00,0.000000,,2013-12-10 07:42:00,
2013-12-10 02:52:00,63.0,63.0,-100.00,ENE,71,1.0,2.0,100,0.00,,,0.00,0.000000,,2013-12-10 07:52:00,
2013-12-10 03:02:00,63.0,63.0,-100.00,ENE,71,1.0,2.0,100,0.00,,,0.00,0.000000,,2013-12-10 08:02:00,
2013-12-10 03:11:00,63.0,63.0,-100.00,North,-999,0.0,2.0,100,0.00,,,0.00,0.000000,,2013-12-10 08:11:00,
2013-12-10 03:42:00,63.0,63.0,-100.00,North,-999,0.0,2.0,100,0.00,,,0.00,0.000000,,2013-12-10 08:42:00,
2013-12-10 03:52:00,63.0,63.0,-100.00,North,-999,0.0,2.0,100,0.00,,,0.00,0.000000,,2013-12-10 08:52:00,
2013-12-10 04:02:00,63.0,63.0,-100.00,North,-999,0.0,2.0,100,0.00,,,0.00,0.000000,,2013-12-10 09:02:00,
2013-12-10 04:11:00,63.0,63.0,-100.00,ENE,61,1.0,2.0,100,0.00,,,0.00,0.000000,,2013-12-10 09:11:00,
2013-12-10 04:44:00,63.0,63.0,-100.00,ENE,61,1.0,2.0,100,0.00,,,0.00,0.000000,,2013-12-10 09:44:00,
2013-12-10 04:54:00,63.0,63.0,-100.00,ENE,61,1.0,2.0,100,0.00,,,0.00,0.000000,,2013-12-10 09:54:00,
2013-12-10 05:03:00,63.0,63.0,-100.00,ENE,61,1.0,2.0,100,0.00,,,0.00,0.000000,,2013-12-10 10:03:00,
2013-12-10 05:11:00,63.0,63.0,-100.00,ENE,78,1.0,3.0,100,0.00,,,0.00,0.000000,,2013-12-10 10:11:00,
2013-12-10 05:43:00,63.0,63.0,-100.00,ENE,78,1.0,3.0,100,0.00,,,0.00,0.000000,,2013-12-10 10:43:00,
2013-12-10 05:53:00,63.0,63.0,-100.00,ENE,78,1.0,3.0,100,0.00,,,0.00,0.000000,,2013-12-10 10:53:00,
2013-12-10 06:02:00,63.0,63.0,-100.00,ENE,78,1.0,3.0,100,0.00,,,0.00,0.000000,,2013-12-10 11:02:00,
2013-12-10 06:11:00,62.0,62.0,-100.00,North,-999,0.0,3.0,100,0.00,,,0.00,0.000000,,2013-12-10 11:11:00,
2013-12-10 06:43:00,62.0,62.0,-100.00,North,-999,0.0,3.0,100,0.00,,,0.00,0.000000,,2013-12-10 11:43:00,
2013-12-10 06:53:00,62.0,62.0,-100.00,North,-999,0.0,3.0,100,0.00,,,0.00,0.000000,,2013-12-10 11:53:00,
2013-12-10 07:02:00,62.0,62.0,-100.00,North,-999,0.0,3.0,100,0.00,,,0.00,0.000000,,2013-12-10 12:02:00,
2013-12-10 10:11:00,80.0,71.0,-100.00,SE,140,4.0,9.0,74,-99.99,,,-99.99,436.000000,,2013-12-10 15:11:00,
2013-12-10 10:44:00,80.0,71.0,-100.00,SE,140,4.0,9.0,74,-99.99,,,-99.99,436.000000,,2013-12-10 15:44:00,
2013-12-10 10:53:00,80.0,71.0,-100.00,SE,140,4.0,9.0,74,-99.99,,,-99.99,436.000000,,2013-12-10 15:53:00,
2013-12-10 11:04:00,80.0,71.0,-100.00,SE,140,4.0,9.0,74,-99.99,,,-99.99,436.000000,,2013-12-10 16:04:00,
2013-12-10 11:11:00,85.0,70.0,-100.00,SSW,199,4.0,10.0,61,0.00,,,0.00,617.000000,,2013-12-10 16:11:00,
2013-12-10 11:43:00,85.0,70.0,-100.00,SSW,199,4.0,10.0,61,0.00,,,0.00,617.000000,,2013-12-10 16:43:00,
2013-12-10 11:53:00,85.0,70.0,-100.00,SSW,199,4.0,10.0,61,0.00,,,0.00,617.000000,,2013-12-10 16:53:00,
2013-12-10 12:03:00,85.0,70.0,-100.00,SSW,199,4.0,10.0,61,0.00,,,0.00,617.000000,,2013-12-10 17:03:00,
2013-12-10 12:11:00,84.0,69.0,-100.00,SW,230,3.0,8.0,60,0.00,,,0.00,448.000000,,2013-12-10 17:11:00,
2013-12-10 12:43:00,84.0,69.0,-100.00,SW,230,3.0,8.0,60,0.00,,,0.00,448.000000,,2013-12-10 17:43:00,
2013-12-10 12:52:00,84.0,69.0,-100.00,SW,230,3.0,8.0,60,0.00,,,0.00,448.000000,,2013-12-10 17:52:00,
2013-12-10 13:02:00,84.0,69.0,-100.00,SW,230,3.0,8.0,60,0.00,,,0.00,448.000000,,2013-12-10 18:02:00,
2013-12-10 13:11:00,85.0,67.0,-100.00,West,279,3.0,7.0,55,0.00,,,0.00,474.000000,,2013-12-10 18:11:00,
2013-12-10 13:42:00,85.0,67.0,-100.00,West,279,3.0,7.0,55,0.00,,,0.00,474.000000,,2013-12-10 18:42:00,
2013-12-10 13:53:00,85.0,67.0,-100.00,West,279,3.0,7.0,55,0.00,,,0.00,474.000000,,2013-12-10 18:53:00,
2013-12-10 14:02:00,85.0,67.0,-100.00,West,279,3.0,7.0,55,0.00,,,0.00,474.000000,,2013-12-10 19:02:00,
2013-12-10 14:11:00,83.0,69.0,-100.00,WNW,289,2.0,7.0,62,0.00,,,0.00,262.000000,,2013-12-10 19:11:00,
2013-12-10 14:42:00,83.0,69.0,-100.00,WNW,289,2.0,7.0,62,0.00,,,0.00,262.000000,,2013-12-10 19:42:00,
2013-12-10 14:52:00,83.0,69.0,-100.00,WNW,289,2.0,7.0,62,0.00,,,0.00,262.000000,,2013-12-10 19:52:00,
2013-12-10 15:02:00,83.0,69.0,-100.00,WNW,289,2.0,7.0,62,0.00,,,0.00,262.000000,,2013-12-10 20:02:00,
2013-12-10 15:11:00,86.0,68.0,-100.00,NNW,341,2.0,4.0,55,0.00,,,0.00,252.000000,,2013-12-10 20:11:00,
2013-12-10 15:42:00,86.0,68.0,-100.00,NNW,341,2.0,4.0,55,0.00,,,0.00,252.000000,,2013-12-10 20:42:00,
2013-12-10 15:53:00,86.0,68.0,-100.00,NNW,341,2.0,4.0,55,0.00,,,0.00,252.000000,,2013-12-10 20:53:00,
2013-12-10 16:02:00,86.0,68.0,-100.00,NNW,341,2.0,4.0,55,0.00,,,0.00,252.000000,,2013-12-10 21:02:00,
2013-12-10 16:11:00,88.0,66.0,-100.00,SW,219,3.0,6.0,48,0.00,,,0.00,350.000000,,2013-12-10 21:11:00,
2013-12-10 16:43:00,88.0,66.0,-100.00,SW,219,3.0,6.0,48,0.00,,,0.00,350.000000,,2013-12-10 21:43:00,
2013-12-10 16:54:00,88.0,66.0,-100.00,SW,219,3.0,6.0,48,0.00,,,0.00,350.000000,,2013-12-10 21:54:00,
2013-12-10 17:04:00,88.0,66.0,-100.00,SW,219,3.0,6.0,48,0.00,,,0.00,350.000000,,2013-12-10 22:04:00,
2013-12-10 17:11:00,82.0,72.0,-100.00,North,-999,0.0,6.0,73,0.00,,,0.00,140.000000,,2013-12-10 22:11:00,
2013-12-10 17:43:00,82.0,72.0,-100.00,North,-999,0.0,6.0,73,0.00,,,0.00,140.000000,,2013-12-10 22:43:00,
2013-12-10 17:53:00,82.0,72.0,-100.00,North,-999,0.0,6.0,73,0.00,,,0.00,140.000000,,2013-12-10 22:53:00,
2013-12-10 18:02:00,82.0,72.0,-100.00,North,-999,0.0,6.0,73,0.00,,,0.00,140.000000,,2013-12-10 23:02:00,
2013-12-10 18:11:00,72.0,70.0,-100.00,North,-999,0.0,2.0,92,0.00,,,0.00,7.000000,,2013-12-10 23:11:00,
2013-12-10 18:43:00,72.0,70.0,-100.00,North,-999,0.0,2.0,92,0.00,,,0.00,7.000000,,2013-12-10 23:43:00,
2013-12-10 18:53:00,72.0,70.0,-100.00,North,-999,0.0,2.0,92,0.00,,,0.00,7.000000,,2013-12-10 23:53:00,
2013-12-10 19:02:00,72.0,70.0,-100.00,North,-999,0.0,2.0,92,0.00,,,0.00,7.000000,,2013-12-11 00:02:00,
2013-12-10 19:11:00,68.0,67.0,-100.00,North,-999,0.0,2.0,97,0.00,,,0.00,0.000000,,2013-12-11 00:11:00,
2013-12-10 19:42:00,68.0,67.0,-100.00,North,-999,0.0,2.0,97,0.00,,,0.00,0.000000,,2013-12-11 00:42:00,
2013-12-10 19:52:00,68.0,67.0,-100.00,North,-999,0.0,2.0,97,0.00,,,0.00,0.000000,,2013-12-11 00:52:00,
2013-12-10 20:01:00,68.0,67.0,-100.00,North,-999,0.0,2.0,97,0.00,,,0.00,0.000000,,2013-12-11 01:01:00,
2013-12-10 20:11:00,67.0,67.0,-100.00,SW,231,1.0,2.0,99,0.00,,,0.00,0.000000,,2013-12-11 01:11:00,
2013-12-10 20:42:00,67.0,67.0,-100.00,SW,231,1.0,2.0,99,0.00,,,0.00,0.000000,,2013-12-11 01:42:00,
2013-12-10 20:52:00,67.0,67.0,-100.00,SW,231,1.0,2.0,99,0.00,,,0.00,0.000000,,2013-12-11 01:52:00,
2013-12-10 21:02:00,67.0,67.0,-100.00,SW,231,1.0,2.0,99,0.00,,,0.00,0.000000,,2013-12-11 02:02:00,
2013-12-10 21:11:00,67.0,67.0,-100.00,SE,137,1.0,2.0,100,0.00,,,0.00,0.000000,,2013-12-11 02:11:00,
2013-12-10 21:42:00,67.0,67.0,-100.00,SE,137,1.0,2.0,100,0.00,,,0.00,0.000000,,2013-12-11 02:42:00,
2013-12-10 21:52:00,67.0,67.0,-100.00,SE,137,1.0,2.0,100,0.00,,,0.00,0.000000,,2013-12-11 02:52:00,
2013-12-10 22:03:00,67.0,67.0,-100.00,SE,137,1.0,2.0,100,0.00,,,0.00,0.000000,,2013-12-11 03:03:00,
2013-12-10 22:11:00,65.0,65.0,-100.00,North,-999,0.0,2.0,100,0.00,,,0.00,0.000000,,2013-12-11 03:11:00,
2013-12-10 22:44:00,65.0,65.0,-100.00,North,-999,0.0,2.0,100,0.00,,,0.00,0.000000,,2013-12-11 03:44:00,
2013-12-10 22:54:00,65.0,65.0,-100.00,North,-999,0.0,2.0,100,0.00,,,0.00,0.000000,,2013-12-11 03:54:00,
2013-12-10 23:03:00,65.0,65.0,-100.00,North,-999,0.0,2.0,100,0.00,,,0.00,0.000000,,2013-12-11 04:03:00,
2013-12-10 23:11:00,66.0,66.0,-100.00,North,-999,0.0,2.0,100,0.00,,,-99.99,0.000000,,2013-12-11 04:11:00,
2013-12-10 23:43:00,66.0,66.0,-100.00,North,-999,0.0,2.0,100,0.00,,,-99.99,0.000000,,2013-12-11 04:43:00,
2013-12-10 23:53:00,66.0,66.0,-100.00,North,-999,0.0,2.0,100,0.00,,,-99.99,0.000000,,2013-12-11 04:53:00,